createdAt,value
2023-03-01T00:02:12.484Z,6.77
2023-03-01T00:04:39.117Z,7.50
2023-03-01T00:07:05.734Z,7.40
2023-03-01T00:09:32.325Z,7.50
2023-03-01T00:11:58.865Z,7.53
2023-03-01T00:14:25.475Z,6.89
2023-03-01T00:16:52.071Z,6.70
2023-03-01T00:19:20.936Z,7.02
2023-03-01T00:21:47.547Z,7.02
2023-03-01T00:24:14.186Z,7.23
2023-03-01T00:26:40.898Z,7.25
2023-03-01T00:29:07.862Z,6.92
2023-03-01T00:31:34.852Z,7.25
2023-03-01T00:34:04.115Z,7.20
2023-03-01T00:36:34.976Z,7.05
2023-03-01T00:39:02.406Z,7.04
2023-03-01T00:41:29.044Z,6.70
2023-03-01T00:43:56.135Z,7.10
2023-03-01T00:46:25.308Z,7.21
2023-03-01T00:48:52.233Z,6.87
2023-03-01T00:51:25.068Z,6.98
2023-03-01T00:53:53.472Z,6.75
2023-03-01T00:56:20.786Z,7.26
2023-03-01T00:58:47.502Z,7.20
2023-03-01T01:01:18.632Z,7.19
2023-03-01T01:03:46.206Z,7.04
2023-03-01T01:06:27.678Z,6.93
2023-03-01T01:08:55.720Z,7.33
2023-03-01T01:11:24.596Z,7.38
2023-03-01T01:13:51.950Z,7.43
2023-03-01T01:16:23.260Z,6.94
2023-03-01T01:18:50.395Z,7.48
2023-03-01T01:21:20.077Z,6.70
2023-03-01T01:23:47.839Z,7.07
2023-03-01T01:26:29.478Z,7.52
2023-03-01T01:28:57.219Z,7.47
2023-03-01T01:31:24.773Z,6.60
2023-03-01T01:33:52.398Z,6.78
2023-03-01T01:36:19.477Z,6.83
2023-03-01T01:38:46.252Z,6.72
2023-03-01T01:41:14.576Z,6.73
2023-03-01T01:43:47.226Z,6.73
2023-03-01T01:46:33.636Z,6.66
2023-03-01T01:49:04.919Z,6.68
2023-03-01T01:51:40.238Z,6.57
2023-03-01T01:54:12.672Z,5.88
2023-03-01T01:56:43.166Z,6.62
2023-03-01T01:59:11.017Z,6.83
2023-03-01T02:01:37.757Z,6.88
2023-03-01T02:04:05.660Z,6.87
2023-03-01T02:06:40.539Z,6.87
2023-03-01T02:09:14.781Z,6.69
2023-03-01T02:11:41.589Z,6.57
2023-03-01T02:14:08.268Z,6.25
2023-03-01T02:16:35.245Z,6.46
2023-03-01T02:19:05.767Z,6.31
2023-03-01T02:21:55.606Z,6.51
2023-03-01T02:25:03.988Z,6.30
2023-03-01T02:27:55.907Z,6.25
2023-03-01T02:30:23.786Z,6.14
2023-03-01T02:32:53.078Z,6.28
2023-03-01T02:35:20.875Z,5.83
2023-03-01T02:37:48.949Z,6.12
2023-03-01T02:40:19.897Z,6.45
2023-03-01T02:42:56.800Z,6.32
2023-03-01T02:45:24.168Z,6.79
2023-03-01T02:47:50.979Z,6.97
2023-03-01T02:50:33.139Z,7.04
2023-03-01T02:53:29.262Z,7.09
2023-03-01T02:55:55.870Z,7.30
2023-03-01T02:58:22.570Z,7.34
2023-03-01T03:00:50.367Z,7.45
2023-03-01T03:03:20.440Z,7.44
2023-03-01T03:05:47.364Z,7.50
2023-03-01T03:08:14.184Z,7.47
2023-03-01T03:10:44.089Z,7.26
2023-03-01T03:13:13.120Z,7.69
2023-03-01T03:15:40.815Z,7.35
2023-03-01T03:18:11.308Z,6.71
2023-03-01T03:20:38.883Z,6.92
2023-03-01T03:23:05.521Z,6.93
2023-03-01T03:25:32.128Z,7.19
2023-03-01T03:27:59.271Z,7.15
2023-03-01T03:30:32.574Z,7.40
2023-03-01T03:32:59.667Z,7.35
2023-03-01T03:35:31.394Z,7.20
2023-03-01T03:38:04.680Z,7.29
2023-03-01T03:40:46.107Z,7.27
2023-03-01T03:43:23.870Z,7.47
2023-03-01T03:45:51.957Z,7.54
2023-03-01T03:48:19.378Z,7.56
2023-03-01T03:50:54.820Z,7.66
2023-03-01T03:53:23.677Z,7.70
2023-03-01T03:55:50.491Z,7.74
2023-03-01T03:58:20.589Z,7.18
2023-03-01T04:00:49.886Z,7.42
2023-03-01T04:03:18.242Z,7.67
2023-03-01T04:05:44.842Z,7.72
2023-03-01T04:08:11.842Z,7.65
2023-03-01T04:10:46.761Z,7.77
2023-03-01T04:13:16.288Z,7.62
2023-03-01T04:15:46.817Z,7.78
2023-03-01T04:18:15.363Z,7.82
2023-03-01T04:20:42.618Z,7.69
2023-03-01T04:23:14.396Z,7.46
2023-03-01T04:25:56.477Z,7.60
2023-03-01T04:28:35.258Z,7.57
2023-03-01T04:31:14.268Z,7.50
2023-03-01T04:33:43.609Z,7.44
2023-03-01T04:36:12.003Z,7.45
2023-03-01T04:38:39.857Z,7.40
2023-03-01T04:41:09.009Z,7.55
2023-03-01T04:43:36.187Z,7.50
2023-03-01T04:46:13.915Z,7.03
2023-03-01T04:48:44.136Z,7.43
2023-03-01T04:51:14.479Z,7.38
2023-03-01T04:53:42.676Z,7.45
2023-03-01T04:56:10.208Z,7.02
2023-03-01T04:58:37.211Z,7.41
2023-03-01T05:01:16.155Z,7.34
2023-03-01T05:03:44.460Z,7.37
2023-03-01T05:06:11.900Z,7.44
2023-03-01T05:08:42.771Z,7.43
2023-03-01T05:11:09.991Z,6.51
2023-03-01T05:13:39.156Z,7.47
2023-03-01T05:16:07.733Z,7.22
2023-03-01T05:18:35.043Z,7.51
2023-03-01T05:21:07.832Z,7.49
2023-03-01T05:23:35.076Z,7.50
2023-03-01T05:26:06.175Z,7.50
2023-03-01T05:28:33.222Z,7.49
2023-03-01T05:31:00.124Z,7.37
2023-03-01T05:33:27.947Z,7.48
2023-03-01T05:35:54.715Z,7.54
2023-03-01T05:38:22.229Z,7.62
2023-03-01T05:40:49.556Z,7.65
2023-03-01T05:43:17.735Z,7.72
2023-03-01T05:45:44.492Z,7.68
2023-03-01T05:48:12.105Z,7.74
2023-03-01T05:50:41.965Z,7.69
2023-03-01T05:53:17.149Z,7.61
2023-03-01T05:55:45.262Z,7.00
2023-03-01T05:58:15.094Z,6.79
2023-03-01T06:00:42.400Z,6.48
2023-03-01T06:03:12.275Z,5.72
2023-03-01T06:05:40.402Z,6.09
2023-03-01T06:08:07.695Z,6.22
2023-03-01T06:10:34.304Z,6.05
2023-03-01T06:13:00.956Z,5.86
2023-03-01T06:15:27.931Z,5.98
2023-03-01T06:17:59.708Z,6.00
2023-03-01T06:20:28.533Z,5.94
2023-03-01T06:22:55.195Z,5.83
2023-03-01T06:25:26.436Z,5.84
2023-03-01T06:27:56.153Z,5.81
2023-03-01T06:30:24.596Z,6.03
2023-03-01T06:32:51.398Z,5.88
2023-03-01T06:35:19.831Z,5.78
2023-03-01T06:37:48.184Z,5.77
2023-03-01T06:40:15.992Z,5.32
2023-03-01T06:42:44.680Z,6.34
2023-03-01T06:45:12.507Z,6.65
2023-03-01T06:47:39.333Z,6.55
2023-03-01T06:50:06.391Z,6.64
2023-03-01T06:52:33.231Z,6.50
2023-03-01T06:55:00.045Z,6.46
2023-03-01T06:57:27.204Z,6.70
2023-03-01T06:59:53.855Z,6.90
2023-03-01T07:02:20.451Z,6.02
2023-03-01T07:04:47.227Z,4.21
2023-03-01T07:07:14.025Z,6.85
2023-03-01T07:09:40.595Z,7.06
2023-03-01T07:12:07.821Z,6.86
2023-03-01T07:14:34.506Z,7.20
2023-03-01T07:17:01.144Z,7.53
2023-03-01T07:19:27.793Z,6.74
2023-03-01T07:21:55.022Z,5.15
2023-03-01T07:24:21.629Z,6.87
2023-03-01T07:26:52.452Z,7.31
2023-03-01T07:29:19.329Z,6.82
2023-03-01T07:31:46.325Z,7.22
2023-03-01T07:34:12.929Z,7.03
2023-03-01T07:36:40.675Z,7.25
2023-03-01T07:39:07.566Z,7.39
2023-03-01T07:41:34.212Z,7.02
2023-03-01T07:44:01.290Z,7.11
2023-03-01T07:46:27.965Z,7.38
2023-03-01T07:48:54.818Z,7.63
2023-03-01T07:51:22.284Z,7.58
2023-03-01T07:53:49.674Z,7.17
2023-03-01T07:56:20.654Z,7.92
2023-03-01T07:58:49.736Z,7.71
2023-03-01T08:01:19.290Z,8.14
2023-03-01T08:03:46.459Z,8.04
2023-03-01T08:06:15.373Z,8.10
2023-03-01T08:08:42.609Z,7.71
2023-03-01T08:11:12.506Z,7.71
2023-03-01T08:13:39.205Z,8.15
2023-03-01T08:16:08.724Z,7.81
2023-03-01T08:18:35.809Z,7.93
2023-03-01T08:21:07.029Z,7.65
2023-03-01T08:23:34.054Z,7.65
2023-03-01T08:26:13.003Z,7.50
2023-03-01T08:28:40.946Z,6.79
2023-03-01T08:31:34.362Z,7.86
2023-03-01T08:34:02.610Z,7.80
2023-03-01T08:36:32.818Z,7.72
2023-03-01T08:39:00.167Z,8.37
2023-03-01T08:41:27.037Z,8.54
2023-03-01T08:43:59.771Z,7.80
2023-03-01T08:46:38.156Z,5.92
2023-03-01T08:49:06.707Z,7.19
2023-03-01T08:51:37.633Z,8.28
2023-03-01T08:54:05.823Z,8.03
2023-03-01T08:56:33.460Z,6.87
2023-03-01T08:59:00.136Z,7.72
2023-03-01T09:01:26.786Z,7.90
2023-03-01T09:03:53.420Z,7.94
2023-03-01T09:06:20.051Z,7.82
2023-03-01T09:08:49.720Z,8.51
2023-03-01T09:11:19.083Z,7.74
2023-03-01T09:13:47.754Z,7.33
2023-03-01T09:16:16.343Z,8.18
2023-03-01T09:18:43.281Z,7.93
2023-03-01T09:21:14.572Z,8.18
2023-03-01T09:23:43.528Z,6.07
2023-03-01T09:26:30.759Z,8.63
2023-03-01T09:28:58.451Z,8.02
2023-03-01T09:31:25.478Z,8.51
2023-03-01T09:33:53.967Z,7.17
2023-03-01T09:36:22.956Z,8.88
2023-03-01T09:38:50.448Z,8.67
2023-03-01T09:41:58.956Z,8.55
2023-03-01T09:44:50.888Z,8.25
2023-03-01T09:47:21.400Z,8.40
2023-03-01T09:50:15.776Z,8.86
2023-03-01T09:53:00.637Z,8.93
2023-03-01T09:55:30.097Z,8.95
2023-03-01T09:58:11.899Z,9.28
2023-03-01T10:00:44.310Z,9.04
2023-03-01T10:04:02.059Z,8.53
2023-03-01T10:06:34.936Z,7.89
2023-03-01T10:09:06.073Z,8.77
2023-03-01T10:11:42.580Z,8.99
2023-03-01T10:14:15.230Z,9.37
2023-03-01T10:17:02.228Z,9.79
2023-03-01T10:19:39.530Z,8.75
2023-03-01T10:22:25.609Z,9.79
2023-03-01T10:24:53.919Z,9.16
2023-03-01T10:27:26.549Z,9.97
2023-03-01T10:29:56.126Z,10.28
2023-03-01T10:32:25.092Z,9.79
2023-03-01T10:34:51.933Z,10.72
2023-03-01T10:37:22.699Z,10.37
2023-03-01T10:40:10.730Z,10.64
2023-03-01T10:42:41.512Z,10.41
2023-03-01T10:45:17.198Z,9.68
2023-03-01T10:47:43.831Z,9.64
2023-03-01T10:50:23.323Z,9.46
2023-03-01T10:53:02.839Z,10.26
2023-03-01T10:55:36.164Z,9.81
2023-03-01T10:58:23.349Z,9.26
2023-03-01T11:00:54.820Z,9.59
2023-03-01T11:03:28.717Z,8.45
2023-03-01T11:05:55.321Z,9.52
2023-03-01T11:08:43.769Z,9.87
2023-03-01T11:11:10.389Z,10.09
2023-03-01T11:13:40.270Z,10.34
2023-03-01T11:16:11.043Z,9.99
2023-03-01T11:18:47.713Z,9.07
2023-03-01T11:21:17.136Z,9.11
2023-03-01T11:23:47.907Z,9.27
2023-03-01T11:26:17.330Z,9.33
2023-03-01T11:28:48.112Z,10.31
2023-03-01T11:31:17.890Z,10.30
2023-03-01T11:33:56.575Z,10.58
2023-03-01T11:36:32.348Z,10.58
2023-03-01T11:39:05.072Z,10.47
2023-03-01T11:41:37.591Z,10.48
2023-03-01T11:44:29.365Z,10.41
2023-03-01T11:47:14.546Z,10.13
2023-03-01T11:50:06.958Z,9.97
2023-03-01T11:53:01.784Z,9.70
2023-03-01T11:55:43.357Z,9.34
2023-03-01T11:58:42.220Z,9.80
2023-03-01T12:01:27.697Z,9.67
2023-03-01T12:04:20.306Z,9.44
2023-03-01T12:07:07.041Z,9.59
2023-03-01T12:09:43.241Z,9.63
2023-03-01T12:12:23.530Z,9.38
2023-03-01T12:14:50.770Z,9.73
2023-03-01T12:17:32.958Z,9.67
2023-03-01T12:20:23.074Z,9.52
2023-03-01T12:23:20.799Z,9.51
2023-03-01T12:25:59.629Z,9.33
2023-03-01T12:28:53.310Z,9.36
2023-03-01T12:32:02.924Z,9.01
2023-03-01T12:34:44.450Z,9.29
2023-03-01T12:37:29.632Z,9.33
2023-03-01T12:40:22.321Z,9.47
2023-03-01T12:43:10.649Z,9.58
2023-03-01T12:46:04.404Z,9.57
2023-03-01T12:48:50.513Z,9.67
2023-03-01T12:51:21.760Z,9.28
2023-03-01T12:53:49.868Z,9.82
2023-03-01T12:56:25.112Z,9.60
2023-03-01T12:59:08.279Z,9.84
2023-03-01T13:01:57.982Z,9.61
2023-03-01T13:04:46.593Z,9.50
2023-03-01T13:07:46.715Z,9.77
2023-03-01T13:10:27.905Z,9.77
2023-03-01T13:12:57.490Z,9.73
2023-03-01T13:15:23.999Z,9.79
2023-03-01T13:17:56.826Z,9.71
2023-03-01T13:20:46.444Z,9.89
2023-03-01T13:23:22.132Z,9.93
2023-03-01T13:26:16.496Z,9.53
2023-03-01T13:28:47.071Z,9.66
2023-03-01T13:31:17.715Z,9.78
2023-03-01T13:33:48.729Z,9.85
2023-03-01T13:36:38.836Z,9.84
2023-03-01T13:39:34.200Z,9.64
2023-03-01T13:42:01.605Z,9.44
2023-03-01T13:44:34.414Z,8.94
2023-03-01T13:47:13.528Z,9.59
2023-03-01T13:50:01.547Z,9.55
2023-03-01T13:52:47.614Z,8.70
2023-03-01T13:55:22.237Z,7.92
2023-03-01T13:57:55.191Z,7.84
2023-03-01T14:00:40.132Z,8.26
2023-03-01T14:03:20.842Z,5.92
2023-03-01T14:06:27.352Z,7.91
2023-03-01T14:09:25.057Z,7.89
2023-03-01T14:11:57.665Z,7.87
2023-03-01T14:14:31.132Z,8.48
2023-03-01T14:17:21.982Z,8.68
2023-03-01T14:19:55.494Z,8.85
2023-03-01T14:22:24.040Z,8.94
2023-03-01T14:24:57.620Z,8.88
2023-03-01T14:27:31.125Z,9.01
2023-03-01T14:29:59.142Z,9.02
2023-03-01T14:32:28.774Z,8.70
2023-03-01T14:34:56.457Z,8.79
2023-03-01T14:37:30.055Z,8.98
2023-03-01T14:39:58.062Z,8.98
2023-03-01T14:42:28.355Z,9.02
2023-03-01T14:44:57.568Z,9.09
2023-03-01T14:47:24.134Z,9.17
2023-03-01T14:49:57.100Z,9.25
2023-03-01T14:52:32.669Z,9.22
2023-03-01T14:54:59.277Z,9.26
2023-03-01T14:57:27.962Z,8.77
2023-03-01T14:59:58.207Z,9.36
2023-03-01T15:02:27.463Z,9.28
2023-03-01T15:05:01.824Z,9.32
2023-03-01T15:07:34.865Z,9.16
2023-03-01T15:10:03.473Z,8.92
2023-03-01T15:12:30.093Z,9.45
2023-03-01T15:15:04.351Z,9.39
2023-03-01T15:17:39.050Z,9.35
2023-03-01T15:20:17.767Z,9.36
2023-03-01T15:22:50.460Z,9.18
2023-03-01T15:25:20.206Z,9.30
2023-03-01T15:27:51.987Z,9.27
2023-03-01T15:30:23.093Z,9.21
2023-03-01T15:32:49.906Z,8.99
2023-03-01T15:35:48.896Z,9.10
2023-03-01T15:38:51.336Z,8.95
2023-03-01T15:41:34.038Z,8.64
2023-03-01T15:44:14.873Z,8.62
2023-03-01T15:46:49.097Z,8.28
2023-03-01T15:49:54.352Z,8.62
2023-03-01T15:52:30.069Z,8.50
2023-03-01T15:54:58.932Z,8.46
2023-03-01T15:57:25.777Z,8.01
2023-03-01T15:59:52.396Z,8.47
2023-03-01T16:02:22.071Z,8.43
2023-03-01T16:04:50.630Z,8.43
2023-03-01T16:07:18.168Z,8.43
2023-03-01T16:09:45.062Z,8.33
2023-03-01T16:12:17.452Z,8.35
2023-03-01T16:14:44.497Z,8.30
2023-03-01T16:17:11.321Z,7.94
2023-03-01T16:19:39.074Z,7.92
2023-03-01T16:22:06.126Z,8.24
2023-03-01T16:24:32.737Z,7.97
2023-03-01T16:26:59.399Z,7.99
2023-03-01T16:29:26.151Z,7.94
2023-03-01T16:31:52.824Z,7.40
2023-03-01T16:34:22.847Z,7.53
2023-03-01T16:36:50.145Z,7.44
2023-03-01T16:39:17.489Z,6.87
2023-03-01T16:41:44.135Z,7.12
2023-03-01T16:44:10.738Z,6.92
2023-03-01T16:46:37.336Z,6.53
2023-03-01T16:49:04.284Z,6.55
2023-03-01T16:51:32.021Z,6.76
2023-03-01T16:53:58.985Z,6.79
2023-03-01T16:56:25.525Z,6.61
2023-03-01T16:58:52.142Z,7.10
2023-03-01T17:01:21.320Z,7.28
2023-03-01T17:03:49.718Z,7.36
2023-03-01T17:06:21.390Z,7.24
2023-03-01T17:08:48.099Z,7.55
2023-03-01T17:11:17.692Z,7.40
2023-03-01T17:13:45.243Z,7.61
2023-03-01T17:16:15.336Z,7.65
2023-03-01T17:18:42.107Z,7.61
2023-03-01T17:21:09.868Z,7.41
2023-03-01T17:23:38.729Z,7.74
2023-03-01T17:26:05.721Z,7.69
2023-03-01T17:28:34.331Z,7.26
2023-03-01T17:31:02.605Z,7.69
2023-03-01T17:33:33.109Z,7.74
2023-03-01T17:36:00.266Z,7.55
2023-03-01T17:38:27.326Z,7.61
2023-03-01T17:40:53.944Z,7.73
2023-03-01T17:43:20.547Z,7.84
2023-03-01T17:45:48.935Z,7.86
2023-03-01T17:48:17.287Z,6.48
2023-03-01T17:50:44.269Z,7.50
2023-03-01T17:53:11.894Z,7.95
2023-03-01T17:55:40.752Z,7.90
2023-03-01T17:58:09.172Z,7.52
2023-03-01T18:00:36.820Z,7.90
2023-03-01T18:03:04.396Z,7.39
2023-03-01T18:05:37.692Z,7.96
2023-03-01T18:08:05.055Z,7.99
2023-03-01T18:10:32.809Z,7.98
2023-03-01T18:12:59.685Z,8.01
2023-03-01T18:15:26.419Z,8.02
2023-03-01T18:17:53.046Z,7.85
2023-03-01T18:20:19.851Z,7.83
2023-03-01T18:22:46.499Z,7.66
2023-03-01T18:25:13.355Z,7.95
2023-03-01T18:27:39.995Z,7.96
2023-03-01T18:30:08.096Z,7.92
2023-03-01T18:32:34.836Z,7.92
2023-03-01T18:35:01.627Z,7.27
2023-03-01T18:37:28.340Z,6.96
2023-03-01T18:39:54.995Z,7.51
2023-03-01T18:42:22.169Z,7.59
2023-03-01T18:44:49.311Z,7.17
2023-03-01T18:47:17.019Z,6.77
2023-03-01T18:49:46.517Z,6.56
2023-03-01T18:52:13.161Z,7.24
2023-03-01T18:54:39.748Z,7.38
2023-03-01T18:57:06.383Z,7.11
2023-03-01T18:59:33.052Z,6.46
2023-03-01T19:01:59.875Z,6.30
2023-03-01T19:04:27.345Z,5.78
2023-03-01T19:06:54.123Z,6.26
2023-03-01T19:09:20.990Z,6.46
2023-03-01T19:11:47.786Z,6.66
2023-03-01T19:14:14.505Z,6.45
2023-03-01T19:16:41.318Z,5.86
2023-03-01T19:19:10.059Z,6.93
2023-03-01T19:21:37.372Z,6.77
2023-03-01T19:24:04.563Z,7.02
2023-03-01T19:26:32.601Z,7.04
2023-03-01T19:28:59.819Z,6.77
2023-03-01T19:31:29.189Z,6.75
2023-03-01T19:34:09.837Z,6.99
2023-03-01T19:36:38.233Z,6.95
2023-03-01T19:39:06.644Z,7.03
2023-03-01T19:41:33.753Z,7.01
2023-03-01T19:44:04.584Z,7.39
2023-03-01T19:46:32.968Z,7.39
2023-03-01T19:49:01.049Z,7.49
2023-03-01T19:51:28.054Z,7.57
2023-03-01T19:53:54.970Z,6.57
2023-03-01T19:56:22.620Z,7.47
2023-03-01T19:58:50.547Z,7.51
2023-03-01T20:01:21.001Z,7.58
2023-03-01T20:03:48.521Z,7.42
2023-03-01T20:06:18.715Z,7.42
2023-03-01T20:08:45.535Z,7.43
2023-03-01T20:11:14.160Z,7.47
2023-03-01T20:13:41.375Z,7.53
2023-03-01T20:16:08.954Z,7.33
2023-03-01T20:18:36.039Z,7.30
2023-03-01T20:21:05.461Z,7.41
2023-03-01T20:23:33.903Z,7.16
2023-03-01T20:26:09.079Z,6.75
2023-03-01T20:28:36.969Z,7.08
2023-03-01T20:31:09.563Z,6.99
2023-03-01T20:33:36.684Z,6.95
2023-03-01T20:36:05.613Z,7.08
2023-03-01T20:38:32.501Z,6.72
2023-03-01T20:41:10.836Z,6.83
2023-03-01T20:43:38.250Z,6.54
2023-03-01T20:46:06.763Z,6.69
2023-03-01T20:48:33.925Z,6.63
2023-03-01T20:51:01.802Z,6.12
2023-03-01T20:53:29.372Z,5.98
2023-03-01T20:55:56.006Z,5.95
2023-03-01T20:58:22.684Z,5.63
2023-03-01T21:00:53.464Z,5.77
2023-03-01T21:03:20.075Z,5.32
2023-03-01T21:05:46.677Z,5.49
2023-03-01T21:08:13.272Z,6.13
2023-03-01T21:10:39.919Z,6.04
2023-03-01T21:13:06.544Z,5.93
2023-03-01T21:15:33.099Z,5.57
2023-03-01T21:17:59.689Z,6.00
2023-03-01T21:20:26.281Z,6.27
2023-03-01T21:22:52.928Z,6.34
2023-03-01T21:25:19.525Z,6.41
2023-03-01T21:27:46.114Z,6.59
2023-03-01T21:30:13.369Z,6.26
2023-03-01T21:32:40.007Z,6.19
2023-03-01T21:35:06.910Z,6.21
2023-03-01T21:37:33.486Z,5.63
2023-03-01T21:40:00.130Z,6.16
2023-03-01T21:42:26.707Z,6.26
2023-03-01T21:44:53.276Z,5.97
2023-03-01T21:47:19.892Z,6.24
2023-03-01T21:49:46.494Z,6.45
2023-03-01T21:52:16.853Z,6.11
2023-03-01T21:54:44.452Z,6.52
2023-03-01T21:57:12.404Z,6.49
2023-03-01T21:59:39.024Z,6.59
2023-03-01T22:02:05.777Z,6.56
2023-03-01T22:04:32.462Z,6.71
2023-03-01T22:06:59.089Z,6.73
2023-03-01T22:09:26.135Z,6.69
2023-03-01T22:11:58.424Z,6.86
2023-03-01T22:14:26.507Z,6.41
2023-03-01T22:16:53.472Z,7.03
2023-03-01T22:19:20.545Z,7.04
2023-03-01T22:21:49.868Z,7.07
2023-03-01T22:24:21.990Z,7.03
2023-03-01T22:26:50.128Z,6.63
2023-03-01T22:29:20.367Z,6.99
2023-03-01T22:31:47.381Z,6.47
2023-03-01T22:34:14.958Z,6.98
2023-03-01T22:36:41.708Z,6.68
2023-03-01T22:39:08.358Z,6.81
2023-03-01T22:41:41.405Z,6.29
2023-03-01T22:44:08.021Z,5.89
2023-03-01T22:46:35.179Z,5.81
2023-03-01T22:49:02.054Z,5.72
2023-03-01T22:51:31.277Z,5.67
2023-03-01T22:53:58.374Z,5.70
2023-03-01T22:56:31.414Z,5.75
2023-03-01T22:58:58.719Z,5.96
2023-03-01T23:01:26.663Z,5.74
2023-03-01T23:03:53.698Z,5.84
2023-03-01T23:06:22.386Z,5.90
2023-03-01T23:08:51.883Z,6.44
2023-03-01T23:11:19.952Z,5.75
2023-03-01T23:13:47.424Z,6.59
2023-03-01T23:16:14.155Z,6.50
2023-03-01T23:18:41.456Z,6.53
2023-03-01T23:21:19.070Z,6.32
2023-03-01T23:23:47.183Z,6.67
2023-03-01T23:26:14.958Z,6.69
2023-03-01T23:28:41.547Z,6.74
2023-03-01T23:31:10.976Z,6.45
2023-03-01T23:33:40.372Z,6.91
2023-03-01T23:36:15.035Z,6.93
2023-03-01T23:38:42.114Z,6.91
2023-03-01T23:41:13.616Z,6.96
2023-03-01T23:43:40.303Z,6.98
2023-03-01T23:46:07.126Z,6.97
2023-03-01T23:48:34.208Z,6.97
2023-03-01T23:51:07.489Z,6.80
2023-03-01T23:53:41.500Z,7.00
2023-03-01T23:56:10.386Z,7.04
2023-03-01T23:58:36.970Z,7.03
